Flight Track Log - Related Links

Times and Time Zones

All times are in EDT time to prevent confusion due to time zone crossing. See the AWE1092 flight status page for this flight to view local times or setup timezone preferences in your user account.

Time Position Orientation Groundspeed Altitude Reporting Facility
EDT Latitude Longitude Course Direction KTS MPH feet Rate Location/Type
Wed 09:50:14 AM 39.8667 -75.2833 201° Southwest 172 198 800  Level Philadelphia TRACON
Wed 09:50:50 AM 39.8333 -75.3000 201° Southwest 191 220 1,900 2,438 Climbing Philadelphia TRACON
Wed 09:51:50 AM 39.7833 -75.3667 226° Southwest 258 297 4,700 2,785 Climbing Philadelphia TRACON
Wed 09:54:00 AM 39.3611 -75.3414 185° South  Level FlightAware Approximate
Wed 09:54:19 AM 39.6092 -75.4031 189° South 307 353 11,600  Level Washington Center
Wed 09:55:00 AM 39.2587 -75.3623 201° Southwest  Level FlightAware Approximate
Wed 09:55:19 AM 39.4989 -75.3978 178° South 352 405 14,300  Level Washington Center
Wed 09:56:20 AM 39.4069 -75.3956 179° South 369 425 16,000 843 Climbing Washington Center
Wed 09:57:20 AM 39.2925 -75.3878 177° South 369 425 16,000  Level Washington Center
Wed 09:58:19 AM 39.2028 -75.3853 179° South 369 425 16,000  Level Washington Center
Wed 09:59:18 AM 39.0903 -75.4017 186° South 376 433 16,000 950 Level Washington Center
Wed 10:00:19 AM 38.9903 -75.4153 186° South 382 440 17,900 1,967 Climbing Washington Center
Wed 10:01:20 AM 38.8861 -75.4317 187° South 387 445 20,000 2,118 Climbing Washington Center
Wed 10:02:18 AM 38.7756 -75.4478 186° South 392 451 22,100 1,985 Climbing Washington Center
Wed 10:03:30 AM 38.6317 -75.4719 187° South 405 466 24,300 1,759 Climbing Washington Center
Wed 10:04:31 AM 38.5172 -75.4856 185° South 410 472 26,000 836 Climbing Washington Center
Wed 10:05:32 AM 38.3983 -75.5042 187° South 416 479 26,000  Level Washington Center
Wed 10:06:31 AM 38.2961 -75.5519 200° South 404 465 26,000  Level Washington Center
Wed 10:07:31 AM 38.2022 -75.6367 215° Southwest 404 465 26,000  Level Washington Center
Wed 10:08:31 AM 38.1106 -75.7236 217° Southwest 411 473 26,000  Level Washington Center
Wed 10:09:32 AM 38.0333 -75.8106 222° Southwest 416 479 26,000  Level Washington Center
Wed 10:10:30 AM 37.9331 -75.8892 212° Southwest 422 486 26,000  Level Washington Center
Wed 10:11:32 AM 37.8431 -75.9706 216° Southwest 422 486 26,000  Level Washington Center
Wed 10:12:32 AM 37.7531 -76.0619 219° Southwest 422 486 26,000  Level Washington Center
Wed 10:13:29 AM 37.6589 -76.1453 215° Southwest 416 479 26,000  Level Washington Center
Wed 10:14:30 AM 37.5625 -76.2233 213° Southwest 416 479 26,000  Level Washington Center
Wed 10:15:30 AM 37.4681 -76.3114 217° Southwest 422 486 26,000  Level Washington Center
Wed 10:16:31 AM 37.3739 -76.3942 215° Southwest 422 486 26,000 -934 Level Washington Center
Wed 10:17:32 AM 37.2794 -76.4794 216° Southwest 427 491 24,100 -1,339 Descending Washington Center
Wed 10:18:32 AM 37.2033 -76.5828 227° Southwest 421 484 23,300 -1,322 Descending Washington Center
Wed 10:19:30 AM 37.1358 -76.6914 232° Southwest 409 471 21,500 -1,169 Descending Washington Center
Wed 10:20:30 AM 37.0681 -76.7944 231° Southwest 399 459 21,000 -248 Descending Washington Center
Wed 10:21:31 AM 36.9939 -76.9078 231° Southwest 393 452 21,000  Level Washington Center
Wed 10:22:32 AM 36.9281 -77.0106 231° Southwest 388 447 21,000  Level Washington Center
Wed 10:23:32 AM 36.8619 -77.1131 231° Southwest 388 447 21,000  Level Washington Center
Wed 10:24:30 AM 36.7939 -77.2156 230° Southwest 388 447 21,000  Level Washington Center
Wed 10:25:30 AM 36.7342 -77.3103 232° Southwest 388 447 21,000  Level Washington Center
Wed 10:26:31 AM 36.6658 -77.4147 231° Southwest 388 447 21,000 -5,410 Level Washington Center
Wed 10:27:32 AM 36.5975 -77.5194 231° Southwest 388 447 10,000 -864 Descending Washington Center
Wed 10:28:43 AM 36.5375 -77.6186 233° Southwest 388 447 19,100 3,298 Climbing Washington Center
Wed 10:29:43 AM 36.4561 -77.7328 228° Southwest 381 438 17,200 -1,736 Descending Washington Center
Wed 10:30:44 AM 36.3961 -77.8292 232° Southwest 369 425 15,600 -1,620 Descending Washington Center
Wed 10:31:23 AM 36.3489 -77.8975 229° Southwest 345 397 14,500 -1,575 Descending Washington Center
Wed 10:32:04 AM 36.3100 -77.9608 233° Southwest 328 377 13,500 -1,350 Descending Washington Center
Wed 10:32:43 AM 36.2778 -78.0086 230° Southwest 345 397 12,700 -1,333 Descending Washington Center
Wed 10:33:43 AM 36.2217 -78.0919 230° Southwest 340 391 11,300 -1,468 Descending Washington Center
Wed 10:34:17 AM 36.1853 -78.1450 230° Southwest 293 337 10,400 -1,389 Descending Washington Center
Wed 10:35:18 AM 36.1439 -78.2258 238° Southwest 280 322 9,100 -1,511 Descending Washington Center
Wed 10:36:36 AM 36.1181 -78.3508 256° West 270 311 6,900 -1,252 Descending Washington Center
Wed 10:37:37 AM 36.1036 -78.4378 258° West 258 297 6,200 -887 Descending Washington Center
Wed 10:38:31 AM 36.0914 -78.5069 258° West 221 254 5,200 -992 Descending Washington Center
Wed 10:39:38 AM 36.0564 -78.5775 238° Southwest 227 261 4,200 -609 Descending Washington Center
Wed 10:40:39 AM 36.0175 -78.6247 224° Southwest 201 231 3,900 -595 Descending Washington Center
Wed 10:41:39 AM 35.9789 -78.6722 225° Southwest 196 226 3,000 -1,039 Descending Washington Center
Wed 10:42:46 AM 35.9419 -78.7219 227° Southwest 168 193 1,700 -938 Descending Washington Center
Wed 10:43:47 AM 35.9142 -78.7517 221° Southwest 127 146 1,000 -689 Descending Washington Center

Login

Don't have an account? Register now (free) for customized features, flight alerts, and more!